Sacramento, California
Traffic Map
Current Weather Conditions
Sacramento, California
Clear
Clear
60°
Feels Like: 60°
Wind Chill: 60° Ceiling: Unl
Heat Index: 60° Visibility: 10mi
Dew Point: 52° Wind: 7mph
Humidity: 75% Direction: 200° (SSW)
Pressure: 29.92in Gusts: 0mph
Raw Report DataKSAC 191353Z 20006KT 10SM CLR 16/11 A2992 RMK AO2 SLP132 T01560111
Traffic Incident Summary
Active as of:
Severity:
Category:
InformationThere was an issue retrieving the traffic information for this location. Please try a different location or try again shortly.
Advertisements